West End, Texas
Current Conditions -  °F | °C
As of 10:35 PM on Saturday 22 Nov 2014 (Local Time) from KARM Reporting Station
NA  
Wind Chill: 67°   Ceiling: NA
Heat Index: 67°   Visibility: NA
Dew Point: 65°   Wind: 18mph
Humidity: 94%   Direction: 200°SSW
Pressure: 29.76"   Gusts: 35mph
Location:  29.1916°N, 96.2212°W
Report Text: KARM 230435Z AUTO 20016G30KT 19/18 A2976 RMK AO2 LTG DSNT ALQS P0001 T01940184 PWINO
Loading
Personal Weather Stations






























Interactive Weather Map New forecast layout! Learn more

10-Day Weather Forecast

Advertisements
Track Severe Weather on mobile